Nearby METAR Reports - 80 Mile Radius
Meteorological Terminal Air Report (METAR)


KBWI - Balto/Wash Intl Airport, Maryland
Distance from station: S 5mi, 8km
Updated: Fri, 18-Jan-2019 5:54am EST
Mist, Overcast
Mist, Overcast
 Wind from ENE
Wind: ENE 6 mph , 9 km/h
Temperature: 32°F , 0°C
Wind Chill: 26°F , -3°C
Dew Point: 30°F , -1°C
Humidity: 93%
Barometer: 30.07 inHg , 1018.3 hPa
Summary: Mist
Clouds: Overcast
Visibility: 1 mile , 2 km
Cloud details: Overcast 300 ft
2019/01/18 10:54 KBWI 181054Z 07005KT 1SM R10/P6000FT BR OVC003 00/M01 A3007 RMK AO2 SNE06 SLP183 P0000 T00001006
KDMH - Baltimore/Dwntwn, Maryland
Distance from station: NE 5mi, 9km
Updated: Mon, 14-Jan-2019 7:54am EST
NOT Current

 
Temperature: 28°F , -2°C
Dew Point: 12°F , -11°C
Humidity: 51%
Barometer: 30.27 inHg , 1025.1 hPa
2019/01/14 12:54 KDMH 141254Z AUTO M02/M11 A3027 RMK AO1 SLP250 T10221106
KFME - Fort Meade/Tipton AAF, Maryland
Distance from station: SSW 11mi, 18km
Updated: Fri, 18-Jan-2019 6:00am EST
Overcast
Overcast
 Wind from calm
Wind: Calm
Temperature: 32°F , 0°C
Dew Point: 32°F , 0°C
Humidity: 100%
Barometer: 30.10 inHg , 1019.3 hPa
Clouds: Overcast
Visibility: 2 miles , 3 km
Cloud details: Overcast 300 ft
2019/01/18 11:00 KFME 181100Z AUTO 00000KT 2SM OVC003 00/00 A3010 RMK AO1
 
KMTN - Balto/Martin State Airport, Maryland
Distance from station: ENE 16mi, 26km
Updated: Fri, 18-Jan-2019 5:45am EST
Light snow, Mist, Overcast
Light snow, Mist, Overcast
 Wind from calm
Wind: Calm
Temperature: 32°F , 0°C
Dew Point: 32°F , 0°C
Humidity: 100%
Barometer: 30.10 inHg , 1019.3 hPa
Summary: Light snow, Mist
Clouds: Overcast
Visibility: 2 miles , 3 km
Cloud details: Overcast 500 ft
2019/01/18 10:45 KMTN 181045Z 00000KT 2SM -SN BR OVC005 00/00 A3010
KCGS - College Park Airport, Maryland
Distance from station: SSW 21mi, 34km
Updated: Fri, 18-Jan-2019 6:03am EST
Overcast
Overcast
 Wind from calm
Wind: Calm
Temperature: 32°F , 0°C
Dew Point: 30°F , -1°C
Humidity: 93%
Barometer: 30.07 inHg , 1018.3 hPa
Clouds: Overcast
Visibility: 2 miles , 3 km
Cloud details: Overcast 600 ft
2019/01/18 11:03 KCGS 181103Z AUTO 00000KT 2SM OVC006 00/M01 A3007 RMK AO1 T10051010
KNAK - Annapolis/Naval Academy, Maryland
Distance from station: SE 21mi, 34km
Updated: Fri, 18-Jan-2019 5:54am EST
Mist, Overcast
Mist, Overcast
 Wind from NNE
Wind: NNE 3 mph , 6 km/h
Temperature: 36°F , 2°C
Dew Point: 32°F , 0°C
Humidity: 87%
Barometer: 30.08 inHg , 1018.6 hPa
Summary: Mist
Clouds: Overcast
Visibility: 4 miles , 6 km
Cloud details: Overcast 700 ft
2019/01/18 10:54 KNAK 181054Z AUTO 02003KT 4SM BR OVC007 02/00 A3008 RMK AO2 SLP187 T00220000
 
KGAI - Gaithersburg/Montgomery Co Airpark, Maryland
Distance from station: W 26mi, 41km
Updated: Fri, 18-Jan-2019 5:56am EST
Mist, Overcast
Mist, Overcast
 Wind from calm
Wind: Calm
Temperature: 30°F , -1°C
Dew Point: 28°F , -2°C
Humidity: 93%
Barometer: 30.06 inHg , 1017.9 hPa
Summary: Mist
Clouds: Overcast
Visibility: 2 1/2 miles , 4 km
Cloud details: Overcast 300 ft
2019/01/18 10:56 KGAI 181056Z AUTO 00000KT 2 1/2SM BR OVC003 M01/M02 A3006 RMK AO2 SLP210 T10111022 FZRANO
KW29 - Stevensville/Bay Bridge Airport, Maryland
Distance from station: SE 26mi, 42km
Updated: Fri, 18-Jan-2019 6:00am EST
Mist, Overcast
Mist, Overcast
 Wind from calm
Wind: Calm
Temperature: 32°F , 0°C
Barometer: 30.08 inHg , 1018.6 hPa
Summary: Mist
Clouds: Overcast
Visibility: 3 1/2 miles , 5.6 km
Cloud details: Overcast 500 ft
2019/01/18 11:00 KW29 181100Z AUTO 00000KT 3 1/2SM BR OVC005 00/ A3008 RMK AO2
KDMW - Carroll Co Regional Airport, Maryland
Distance from station: NNW 30mi, 48km
Updated: Fri, 18-Jan-2019 6:00am EST
Mist, Overcast
Mist, Overcast
 Wind from calm
Wind: Calm
Temperature: 30°F , -1°C
Dew Point: 28°F , -2°C
Humidity: 93%
Barometer: 30.04 inHg , 1017.3 hPa
Summary: Mist
Clouds: Overcast
Visibility: 4 miles , 6 km
Cloud details: Overcast 400 ft
2019/01/18 11:00 KDMW 181100Z AUTO 00000KT 4SM BR OVC004 M01/M02 A3004 RMK AO2
 
KADW - Andrews AFB, Maryland
Distance from station: SSW 30mi, 49km
Updated: Fri, 18-Jan-2019 5:56am EST
Mist, Overcast
Mist, Overcast
 Wind from calm
Wind: Calm
Temperature: 32°F , 0°C
Dew Point: 32°F , 0°C
Humidity: 100%
Barometer: 30.05 inHg , 1017.6 hPa
Summary: Mist
Clouds: Overcast
Visibility: 4 miles , 6 km
Cloud details: Overcast 200 ft
2019/01/18 10:56 KADW 181056Z AUTO 00000KT 4SM BR OVC002 00/00 A3005 RMK AO2 VIS 2 RWY19L VIS 2 1/4 RWY19R SLP185 T10021005 $
KAPG - Aberdeen/Phillip AAF, Maryland
Distance from station: ENE 32mi, 52km
Updated: Fri, 18-Jan-2019 5:53am EST
Light snow, Overcast
Light snow, Overcast
 Wind from NNE
Wind: NNE 6 mph , 9 km/h
Temperature: 30°F , -1°C
Wind Chill: 24°F , -4°C
Dew Point: 30°F , -1°C
Humidity: 100%
Barometer: 30.09 inHg , 1019 hPa
Summary: Light Snow
Clouds: Overcast
Visibility: 7 miles , 11 km
Cloud details: Overcast 500 ft
2019/01/18 10:53 KAPG 181053Z 03005KT 7SM R22/5500FT -SN OVC005 M01/M01 A3009 RMK SLP193
KDCA - Washington/Natl Airport, Washington D.C.
Distance from station: SW 32mi, 52km
Updated: Fri, 18-Jan-2019 5:52am EST
Mist, Overcast
Mist, Overcast
 Wind from NNE
Wind: NNE 5 mph , 7 km/h
Temperature: 34°F , 1°C
Wind Chill: 29°F , -2°C
Dew Point: 30°F , -1°C
Humidity: 87%
Barometer: 30.08 inHg , 1018.6 hPa
Summary: Mist
Clouds: Overcast
Visibility: 5 miles , 8 km
Cloud details: Overcast 600 ft
2019/01/18 10:52 KDCA 181052Z 02004KT 5SM BR OVC006 01/M01 A3008 RMK AO2 SLP185 T00111006
 
KFDK - Frederick Municipal Airport, Maryland
Distance from station: WNW 38mi, 61km
Updated: Fri, 18-Jan-2019 6:00am EST
Mist, Overcast
Mist, Overcast
 Wind from calm
Wind: Calm
Temperature: 32°F , 0°C
Dew Point: 32°F , 0°C
Humidity: 100%
Barometer: 30.10 inHg , 1019.3 hPa
Summary: Mist
Clouds: Overcast
Visibility: 3 miles , 5 km
Cloud details: Overcast 700 ft
2019/01/18 11:00 KFDK 181100Z AUTO 00000KT 3SM BR OVC007 00/00 A3010 RMK AO2
KDAA - Fort Belvoir/Davison AAF, Virginia
Distance from station: SW 44mi, 71km
Updated: Fri, 18-Jan-2019 5:56am EST
Overcast
Overcast
 Wind from calm
Wind: Calm
Temperature: 34°F , 1°C
Dew Point: 32°F , 0°C
Humidity: 93%
Barometer: 30.07 inHg , 1018.3 hPa
Clouds: Overcast
Visibility: 8 miles , 13 km
Cloud details: Overcast 500 ft
2019/01/18 10:56 KDAA 181056Z AUTO 00000KT 8SM OVC005 01/00 A3007 RMK AO2 SLP187 T00051005
KESN - Easton/Newnam Field Airport, Maryland
Distance from station: SE 45mi, 73km
Updated: Fri, 18-Jan-2019 6:00am EST
Overcast
Overcast
 Wind from calm
Wind: Calm
Temperature: 34°F , 1°C
Dew Point: 32°F , 0°C
Humidity: 93%
Barometer: 30.11 inHg , 1019.6 hPa
Clouds: Overcast
Visibility: 5 miles , 8 km
Cloud details: Mostly Cloudy 400 ft
Overcast 2400 ft
2019/01/18 11:00 KESN 181100Z 00000KT 5SM BKN004 OVC024 01/00 A3011
 
KIAD - Wash DC/Dulles Intl, Virginia
Distance from station: WSW 45mi, 73km
Updated: Fri, 18-Jan-2019 5:52am EST
Mist, Overcast
Mist, Overcast
 Wind from calm
Wind: Calm
Temperature: 32°F , 0°C
Dew Point: 32°F , 0°C
Humidity: 100%
Barometer: 30.06 inHg , 1017.9 hPa
Summary: Mist
Clouds: Overcast
Visibility: 1 mile , 2 km
Cloud details: Overcast 300 ft
2019/01/18 10:52 KIAD 181052Z 00000KT 1SM R01R/4500V5500FT BR OVC003 00/00 A3006 RMK AO2 SLP181 T00000000
KJYO - Leesburg/Godfrey Field, Virginia
Distance from station: WSW 48mi, 77km
Updated: Fri, 18-Jan-2019 5:55am EST
Mist, Overcast
Mist, Overcast
 Wind from calm
Wind: Calm
Temperature: 32°F , 0°C
Dew Point: 32°F , 0°C
Humidity: 100%
Barometer: 30.06 inHg , 1017.9 hPa
Summary: Mist
Clouds: Overcast
Visibility: 1 1/2 miles , 2.4 km
Cloud details: Overcast 200 ft
2019/01/18 10:55 KJYO 181055Z AUTO 00000KT 1 1/2SM BR OVC002 00/00 A3006 RMK AO2
KTHV - York Airport, Pennsylvania
Distance from station: NNW 48mi, 77km
Updated: Fri, 18-Jan-2019 5:53am EST
Mist, Overcast
Mist, Overcast
 Wind from calm
Wind: Calm
Temperature: 28°F , -2°C
Dew Point: 27°F , -3°C
Humidity: 93%
Barometer: 30.06 inHg , 1017.9 hPa
Summary: Mist
Clouds: Overcast
Visibility: 5 miles , 8 km
Cloud details: Overcast 900 ft
2019/01/18 10:53 KTHV 181053Z AUTO 00000KT 5SM BR OVC009 M02/M03 A3006 RMK AO2 SLP185 T10221028
 
KRSP - Naval Support Fac Thurmont, Maryland, USA
Distance from station: NW 50mi, 81km
Updated: Thu, 15-Nov-2018 8:54am EST
NOT Current
Snow, Freezing, Fog, Overcast
Snow, Freezing, Fog, Overcast
 Wind from ESE
Wind: ESE 9 mph , 15 km/h, Gust: 17 mph , 28 km/h
Temperature: 23°F , -5°C
Wind Chill: 13°F , -11°C
Dew Point: 21°F , -6°C
Humidity: 93%
Barometer: 30.45 inHg , 1031.2 hPa
Summary: Snow, Freezing, Fog
Clouds: Overcast
Visibility: 1/4 mile , 0.4 km
Cloud details: Overcast 500 ft
2018/11/15 13:54 KRSP 151354Z AUTO 11008G15KT 1/4SM SN FZFG VV005 M05/M06 A3045 RMK AO2 SLP340 P0018 T10501056 $
KRYT - Fountain Dale Airport, Pennsylvania
Distance from station: NW 52mi, 84km
Updated: Mon, 13-Nov-2017 7:53am EST
NOT Current
Mist, Overcast
Mist, Overcast
 Wind from calm
Wind: Calm
Temperature: 37°F , 3°C
Dew Point: 34°F , 1°C
Humidity: 87%
Barometer: 30.31 inHg , 1026.4 hPa
Summary: Mist
Clouds: Overcast
Visibility: 5 miles , 8 km
Cloud details: Overcast 700 ft
2017/11/13 12:53 KRYT 131253Z AUTO 00000KT 5SM BR OVC007 03/01 A3031 RMK AO2 SLP275 T00280011 TSNO $
KHEF - Manassas Municipal Airport, Virginia
Distance from station: SW 57mi, 91km
Updated: Fri, 18-Jan-2019 5:56am EST
Mist, Overcast
Mist, Overcast
 Wind from calm
Wind: Calm
Temperature: 32°F , 0°C
Dew Point: 30°F , -1°C
Humidity: 93%
Barometer: 30.07 inHg , 1018.3 hPa
Summary: Mist
Clouds: Overcast
Visibility: 3 miles , 5 km
Cloud details: Overcast 400 ft
2019/01/18 10:56 KHEF 181056Z AUTO 00000KT 3SM BR OVC004 00/M01 A3007 RMK AO2 SLP194 T00001011 PNO $
 
KNYG - Quantico Marine Corps Air Fac, Virginia
Distance from station: SSW 60mi, 96km
Updated: Fri, 18-Jan-2019 5:56am EST
Mist, Overcast
Mist, Overcast
 Wind from calm
Wind: Calm
Temperature: 36°F , 2°C
Dew Point: 34°F , 1°C
Humidity: 93%
Barometer: 30.09 inHg , 1019 hPa
Summary: Mist
Clouds: Overcast
Visibility: 6 miles , 10 km
Cloud details: Overcast 500 ft
2019/01/18 10:56 KNYG 181056Z AUTO 00000KT 6SM BR OVC005 02/01 A3009 RMK AO2 SLP188 T00170011
KCGE - Cambridge-Dorchester Reg Airport, Maryland
Distance from station: SE 60mi, 97km
Updated: Fri, 18-Jan-2019 6:00am EST
Overcast
Overcast
 Wind from calm
Wind: Calm
Temperature: 34°F , 1°C
Dew Point: 34°F , 1°C
Humidity: 100%
Barometer: 30.07 inHg , 1018.3 hPa
Clouds: Overcast
Visibility: 9 miles , 14 km
Cloud details: Overcast 2600 ft
2019/01/18 11:00 KCGE 181100Z AUTO 00000KT 9SM OVC026 01/01 A3007 RMK A01
K2W6 - St Marys Co Reg Airport, Maryland
Distance from station: SSE 64mi, 103km
Updated: Fri, 18-Jan-2019 6:03am EST
Overcast
Overcast
 Wind from calm
Wind: Calm
Temperature: 34°F , 1°C
Dew Point: 32°F , 0°C
Humidity: 93%
Barometer: 30.08 inHg , 1018.6 hPa
Clouds: Overcast
Visibility: 7 miles , 11 km
Cloud details: Partly Cloudy 2000 ft
Overcast 2900 ft
2019/01/18 11:03 K2W6 181103Z AUTO 00000KT 7SM SCT020 OVC029 01/00 A3008 RMK AO1
 
KHGR - Hagerstown Reg Airport, Maryland
Distance from station: WNW 64mi, 103km
Updated: Fri, 18-Jan-2019 5:53am EST
Mist, Overcast
Mist, Overcast
 Wind from NW
Wind: NW 5 mph , 7 km/h
Temperature: 30°F , -1°C
Wind Chill: 25°F , -4°C
Dew Point: 27°F , -3°C
Humidity: 86%
Barometer: 30.03 inHg , 1016.9 hPa
Summary: Mist
Clouds: Overcast
Visibility: 2 1/2 miles , 4 km
Cloud details: Overcast 600 ft
2019/01/18 10:53 KHGR 181053Z AUTO 32004KT 2 1/2SM BR OVC006 M01/M03 A3003 RMK AO2 SNE18 SLP188 P0000 T10111033
KLNS - Lancaster Airport, Pennsylvania
Distance from station: NNE 64mi, 104km
Updated: Fri, 18-Jan-2019 5:53am EST
Mist, Overcast
Mist, Overcast
 Wind from calm
Wind: Calm
Temperature: 28°F , -2°C
Dew Point: 27°F , -3°C
Humidity: 93%
Barometer: 30.06 inHg , 1017.9 hPa
Summary: Mist
Clouds: Overcast
Visibility: 4 miles , 6 km
Cloud details: Overcast 1100 ft
2019/01/18 10:53 KLNS 181053Z 00000KT 4SM BR OVC011 M02/M03 A3006 RMK AO2 SNE0954B11E49 SLP183 P0000 T10171028
KILG - New Castle Airport, Wilmington, Delaware
Distance from station: ENE 66mi, 106km
Updated: Fri, 18-Jan-2019 5:51am EST
Light snow, Mist, Overcast
Light snow, Mist, Overcast
 Wind from ENE
Wind: ENE 5 mph , 7 km/h
Temperature: 30°F , -1°C
Wind Chill: 25°F , -4°C
Dew Point: 28°F , -2°C
Humidity: 93%
Barometer: 30.08 inHg , 1018.6 hPa
Summary: Light snow, Mist
Clouds: Overcast
Visibility: 4 miles , 6 km
Cloud details: Few Clouds 500 ft
Overcast 1300 ft
2019/01/18 10:51 KILG 181051Z AUTO 07004KT 4SM -SN BR FEW005 OVC013 M01/M02 A3008 RMK AO2 SLP188 P0001 T10061017
 
KDOV - Dover Air Force Base, Delaware
Distance from station: E 66mi, 107km
Updated: Fri, 18-Jan-2019 5:56am EST
Light rain, Overcast
Light rain, Overcast
 Wind from NNE
Wind: NNE 3 mph , 6 km/h
Temperature: 34°F , 1°C
Dew Point: 32°F , 0°C
Humidity: 93%
Barometer: 30.07 inHg , 1018.3 hPa
Summary: Light Rain
Clouds: Overcast
Visibility: 9 miles , 14 km
Cloud details: Overcast 400 ft
2019/01/18 10:56 KDOV 181056Z 03003KT 9SM -RA OVC004 01/00 A3007 RMK AO2A RAB0956 OVC V BKN SLP186 P0003 T00060003 $
KMDT - Harrisburg Intl Airport, Middletown, Pennsylvania
Distance from station: N 67mi, 107km
Updated: Fri, 18-Jan-2019 5:56am EST
Mist, Overcast
Mist, Overcast
 Wind from calm
Wind: Calm
Temperature: 28°F , -2°C
Dew Point: 25°F , -4°C
Humidity: 86%
Barometer: 30.07 inHg , 1018.3 hPa
Summary: Mist
Clouds: Overcast
Visibility: 6 miles , 10 km
Cloud details: Overcast 900 ft
2019/01/18 10:56 KMDT 181056Z 00000KT 6SM BR OVC009 M02/M04 A3007 RMK AO2 SNE34 SLP186 P0000 T10221039
KMQS - Chester Co Carlson Airport, Coatesville, Pennsylvania
Distance from station: NE 68mi, 109km
Updated: Fri, 18-Jan-2019 5:55am EST
Light snow, Overcast
Light snow, Overcast
 Wind from E
Wind: E 5 mph , 7 km/h
Temperature: 28°F , -2°C
Wind Chill: 22°F , -6°C
Dew Point: 28°F , -2°C
Humidity: 100%
Barometer: 30.06 inHg , 1017.9 hPa
Summary: Light Snow
Clouds: Overcast
Visibility: 3 miles , 5 km
Cloud details: Overcast 300 ft
2019/01/18 10:55 KMQS 181055Z AUTO 08004KT 3SM -SN OVC003 M02/M02 A3006 RMK AO2
 
KCXY - Capital City Airport, Harrisburg, Pennsylvania
Distance from station: N 68mi, 110km
Updated: Fri, 18-Jan-2019 5:56am EST
Mist, Overcast
Mist, Overcast
 Wind from ENE
Wind: ENE 3 mph , 6 km/h
Temperature: 28°F , -2°C
Dew Point: 25°F , -4°C
Humidity: 86%
Barometer: 30.08 inHg , 1018.6 hPa
Summary: Mist
Clouds: Overcast
Visibility: 6 miles , 10 km
Cloud details: Overcast 700 ft
2019/01/18 10:56 KCXY 181056Z AUTO 07003KT 6SM BR OVC007 M02/M04 A3008 RMK AO2 SNE0957 SLP190 P0000 T10221044
KNHK - Patuxent River NAS, Maryland
Distance from station: SE 69mi, 111km
Updated: Fri, 18-Jan-2019 5:52am EST
Overcast
Overcast
 Wind from NE
Wind: NE 3 mph , 6 km/h
Temperature: 36°F , 2°C
Dew Point: 36°F , 2°C
Humidity: 100%
Barometer: 30.06 inHg , 1017.9 hPa
Clouds: Overcast
Visibility: 8 miles , 13 km
Cloud details: Overcast 2300 ft
2019/01/18 10:52 KNHK 181052Z 04003KT 8SM OVC023 02/02 A3006 RMK AO2 SLP179 T00220017
KMRB - Eastern WV Reg Airport/Shepherd Field, Martinsburg, West Virginia
Distance from station: W 70mi, 112km
Updated: Fri, 18-Jan-2019 5:53am EST
Mist, Overcast
Mist, Overcast
 Wind from calm
Wind: Calm
Temperature: 30°F , -1°C
Dew Point: 30°F , -1°C
Humidity: 100%
Barometer: 30.03 inHg , 1016.9 hPa
Summary: Mist
Clouds: Overcast
Visibility: 3 miles , 5 km
Cloud details: Overcast 400 ft
2019/01/18 10:53 KMRB 181053Z AUTO 00000KT 3SM BR OVC004 M01/M01 A3003 RMK AO2 SLP175 T10061006
 
KHWY - Warrenton-Fauquier Airport, Warrenton, Virginia
Distance from station: SW 71mi, 114km
Updated: Fri, 18-Jan-2019 5:55am EST
Mist, Overcast
Mist, Overcast
 Wind from calm
Wind: Calm
Temperature: 34°F , 1°C
Dew Point: 32°F , 0°C
Humidity: 93%
Barometer: 30.05 inHg , 1017.6 hPa
Summary: Mist
Clouds: Overcast
Visibility: 1 mile , 2 km
Cloud details: Overcast 300 ft
2019/01/18 10:55 KHWY 181055Z AUTO 00000KT 1SM BR OVC003 01/00 A3005 RMK AO2 T00071003
KRMN - Stafford Regional Airport, Virginia
Distance from station: SW 71mi, 114km
Updated: Fri, 18-Jan-2019 5:55am EST
Mist, Overcast
Mist, Overcast
 Wind from calm
Wind: Calm
Temperature: 34°F , 1°C
Dew Point: 34°F , 1°C
Humidity: 100%
Barometer: 30.10 inHg , 1019.3 hPa
Summary: Mist
Clouds: Overcast
Visibility: 2 miles , 3 km
Cloud details: Overcast 200 ft
2019/01/18 10:55 KRMN 181055Z AUTO 00000KT 2SM BR OVC002 01/01 A3010 RMK AO2 T00060006
KNUI - Webster Naval, St Inigoes, Maryland
Distance from station: S 76mi, 123km
Updated: Fri, 18-Jan-2019 5:53am EST
Mist, Overcast
Mist, Overcast
 Wind from NE
Wind: NE 3 mph , 6 km/h
Temperature: 37°F , 3°C
Dew Point: 36°F , 2°C
Humidity: 93%
Barometer: 30.05 inHg , 1017.6 hPa
Summary: Mist
Clouds: Overcast
Visibility: 6 miles , 10 km
Cloud details: Overcast 2300 ft
2019/01/18 10:53 KNUI 181053Z AUTO 05003KT 6SM BR OVC023 03/02 A3005 RMK AO2 SLP175 T00330017
 
KEZF - Fredericksburg/Shan, Virginia
Distance from station: SSW 78mi, 126km
Updated: Fri, 18-Jan-2019 5:55am EST
Mist, Overcast
Mist, Overcast
 Wind from calm
Wind: Calm
Temperature: 34°F , 1°C
Dew Point: 34°F , 1°C
Humidity: 100%
Barometer: 30.06 inHg , 1017.9 hPa
Summary: Mist
Clouds: Overcast
Visibility: 3 miles , 5 km
Cloud details: Overcast 300 ft
2019/01/18 10:55 KEZF 181055Z AUTO 00000KT 3SM BR OVC003 01/01 A3006 RMK AO2 T00070007
KOKV - Winchester Regional Airport, Virginia
Distance from station: W 78mi, 126km
Updated: Fri, 18-Jan-2019 5:55am EST
Mist, Overcast
Mist, Overcast
 Wind from calm
Wind: Calm
Temperature: 30°F , -1°C
Dew Point: 30°F , -1°C
Humidity: 100%
Barometer: 30.04 inHg , 1017.3 hPa
Summary: Mist
Clouds: Overcast
Visibility: 4 miles , 6 km
Cloud details: Overcast 1100 ft
2019/01/18 10:55 KOKV 181055Z AUTO 00000KT 4SM BR OVC011 M01/M01 A3004 RMK AO2
KCJR - Culpeper Regional Airport, Virginia
Distance from station: SW 79mi, 128km
Updated: Fri, 18-Jan-2019 5:50am EST
Fog, Overcast
Fog, Overcast
 Wind from calm
Wind: Calm
Temperature: 34°F , 1°C
Dew Point: 32°F , 0°C
Humidity: 93%
Barometer: 30.06 inHg , 1017.9 hPa
Summary: Fog
Clouds: Overcast
Visibility: 1/2 mile , 0.8 km
Cloud details: Overcast 400 ft
2019/01/18 10:50 KCJR 181050Z AUTO 00000KT 1/2SM FG OVC004 01/00 A3006 RMK AO2 T00050000